Time;durP1;ratioP1;P1;durP2;ratioP2;P2;SDS_P1;SDS_P2;PMS_P1;PMS_P2;Temp;Humidity;BMP_temperature;BMP_pressure;BME280_temperature;BME280_humidity;BME280_pressure;Samples;Min_cycle;Max_cycle;Signal;HPM_P1;HPM_P2
2024/01/04 00:02:14;;;;;;;;;;;;;;;;;;5010405;28;19960;-51
2024/01/04 00:04:40;;;;;;;;;;;;;;;;;;5010087;28;19928;-51
2024/01/04 00:07:06;;;;;;;;;;;;;;;;;;5010192;28;19994;-51
2024/01/04 00:09:32;;;;;;;;;;;;;;;;;;5010063;28;19909;-51
2024/01/04 00:11:58;;;;;;;;;;;;;;;;;;5010546;28;19917;-51
2024/01/04 00:14:24;;;;;;;;;;;;;;;;;;5009888;28;19914;-51
2024/01/04 00:16:49;;;;;;;;;;;;;;;;;;5010011;28;19921;-51
2024/01/04 00:19:15;;;;;;;;;;;;;;;;;;5009568;28;19909;-51
2024/01/04 00:21:41;;;;;;;;;;;;;;;;;;5009999;28;20412;-51
2024/01/04 00:24:07;;;;;;;;;;;;;;;;;;5010147;28;20349;-51
2024/01/04 00:26:33;;;;;;;;;;;;;;;;;;5009564;28;19971;-51
2024/01/04 00:28:59;;;;;;;;;;;;;;;;;;5009515;28;19936;-51
2024/01/04 00:31:25;;;;;;;;;;;;;;;;;;5009681;28;19917;-51
2024/01/04 00:33:51;;;;;;;;;;;;;;;;;;5009438;28;20554;-51
2024/01/04 00:36:17;;;;;;;;;;;;;;;;;;5010641;28;19906;-51
2024/01/04 00:38:43;;;;;;;;;;;;;;;;;;5009569;28;19991;-51
2024/01/04 00:41:09;;;;;;;;;;;;;;;;;;5009393;28;19914;-51
2024/01/04 00:43:35;;;;;;;;;;;;;;;;;;5009300;28;19914;-50
2024/01/04 00:46:01;;;;;;;;;;;;;;;;;;5009323;28;20138;-51
2024/01/04 00:48:27;;;;;;;;;;;;;;;;;;5009717;28;19940;-51
2024/01/04 00:50:52;;;;;;;;;;;;;;;;;;5009135;28;19923;-50
2024/01/04 00:53:18;;;;;;;;;;;;;;;;;;5009303;28;19916;-51
2024/01/04 00:55:44;;;;;;;;;;;;;;;;;;5009135;28;19913;-51
2024/01/04 00:58:10;;;;;;;;;;;;;;;;;;5009283;28;19917;-51
2024/01/04 01:00:36;;;;;;;;;;;;;;;;;;5008670;28;19905;-51
2024/01/04 01:03:02;;;;;;;;;;;;;;;;;;5009764;28;19902;-51
2024/01/04 01:05:28;;;;;;;;;;;;;;;;;;5008856;28;20265;-51
2024/01/04 01:07:54;;;;;;;;;;;;;;;;;;5009332;28;19921;-51
2024/01/04 01:10:20;;;;;;;;;;;;;;;;;;5009117;28;20360;-51
2024/01/04 01:12:46;;;;;;;;;;;;;;;;;;5009245;28;20012;-51
2024/01/04 01:15:12;;;;;;;;;;;;;;;;;;5009610;28;19960;-51
2024/01/04 01:17:38;;;;;;;;;;;;;;;;;;5008943;28;19999;-51
2024/01/04 01:20:04;;;;;;;;;;;;;;;;;;5008640;28;19945;-51
2024/01/04 01:22:29;;;;;;;;;;;;;;;;;;5009013;28;19964;-51
2024/01/04 01:24:55;;;;;;;;;;;;;;;;;;5008925;28;19913;-51
2024/01/04 01:27:21;;;;;;;;;;;;;;;;;;5009148;28;19905;-51
2024/01/04 01:29:47;;;;;;;;;;;;;;;;;;5008644;28;19909;-51
2024/01/04 01:32:13;;;;;;;;;;;;;;;;;;5008478;28;19940;-51
2024/01/04 01:34:39;;;;;;;;;;;;;;;;;;5008720;28;19963;-51
2024/01/04 01:37:05;;;;;;;;;;;;;;;;;;5008666;28;19936;-51
2024/01/04 01:39:31;;;;;;;;;;;;;;;;;;5008050;28;19920;-51
2024/01/04 01:41:56;;;;;;;;;;;;;;;;;;5008769;28;19959;-51
2024/01/04 01:44:22;;;;;;;;;;;;;;;;;;5008233;28;19982;-51
2024/01/04 01:46:48;;;;;;;;;;;;;;;;;;5008197;28;19909;-51
2024/01/04 01:49:14;;;;;;;;;;;;;;;;;;5008178;28;20055;-51
2024/01/04 01:51:40;;;;;;;;;;;;;;;;;;5008574;28;20420;-51
2024/01/04 01:54:06;;;;;;;;;;;;;;;;;;5008838;28;19910;-50
2024/01/04 01:56:32;;;;;;;;;;;;;;;;;;5008167;28;20383;-51
2024/01/04 01:58:58;;;;;;;;;;;;;;;;;;5007847;28;19960;-50
2024/01/04 02:01:24;;;;;;;;;;;;;;;;;;4983656;28;19988;-53
2024/01/04 02:03:50;;;;;;;;;;;;;;;;;;4981933;28;20242;-54
2024/01/04 02:06:16;;;;;;;;;;;;;;;;;;4977360;28;20461;-54
2024/01/04 02:08:44;;;;;;;;;;;;;;;;;;4975335;28;19999;-54
2024/01/04 02:11:10;;;;;;;;;;;;;;;;;;4980340;28;19921;-53
2024/01/04 02:13:36;;;;;;;;;;;;;;;;;;4979791;28;19926;-52
2024/01/04 02:16:01;;;;;;;;;;;;;;;;;;4983400;28;19949;-53
2024/01/04 02:18:27;;;;;;;;;;;;;;;;;;4981398;28;19910;-53
2024/01/04 02:20:53;;;;;;;;;;;;;;;;;;4976733;28;19944;-53
2024/01/04 02:23:19;;;;;;;;;;;;;;;;;;4977727;28;19920;-53
2024/01/04 02:25:45;;;;;;;;;;;;;;;;;;4977206;28;19960;-54
2024/01/04 02:28:11;;;;;;;;;;;;;;;;;;4978412;28;20286;-53
2024/01/04 02:30:37;;;;;;;;;;;;;;;;;;4975819;28;19909;-54
2024/01/04 02:33:02;;;;;;;;;;;;;;;;;;4987129;28;19976;-53
2024/01/04 02:35:28;;;;;;;;;;;;;;;;;;4979201;28;20369;-54
2024/01/04 02:37:55;;;;;;;;;;;;;;;;;;4980045;28;19968;-53
2024/01/04 02:40:21;;;;;;;;;;;;;;;;;;4979714;28;19922;-54
2024/01/04 02:42:47;;;;;;;;;;;;;;;;;;4976572;28;20365;-53
2024/01/04 02:45:13;;;;;;;;;;;;;;;;;;4979153;28;19914;-54
2024/01/04 02:47:39;;;;;;;;;;;;;;;;;;4977804;28;19929;-53
2024/01/04 02:50:05;;;;;;;;;;;;;;;;;;4974893;28;19913;-53
2024/01/04 02:52:31;;;;;;;;;;;;;;;;;;4978720;28;19932;-54
2024/01/04 02:54:56;;;;;;;;;;;;;;;;;;4975571;28;19921;-54
2024/01/04 02:57:22;;;;;;;;;;;;;;;;;;4981287;28;20427;-53
2024/01/04 02:59:48;;;;;;;;;;;;;;;;;;4976666;28;19913;-53
2024/01/04 03:02:15;;;;;;;;;;;;;;;;;;4976976;28;19914;-53
2024/01/04 03:04:42;;;;;;;;;;;;;;;;;;4978381;28;20388;-52
2024/01/04 03:07:08;;;;;;;;;;;;;;;;;;4975818;28;19980;-53
2024/01/04 03:09:34;;;;;;;;;;;;;;;;;;4979284;28;20388;-53
2024/01/04 03:12:00;;;;;;;;;;;;;;;;;;4978950;28;19963;-53
2024/01/04 03:14:25;;;;;;;;;;;;;;;;;;4982564;28;19918;-53
2024/01/04 03:16:51;;;;;;;;;;;;;;;;;;4982372;28;19922;-54
2024/01/04 03:19:17;;;;;;;;;;;;;;;;;;4976746;28;20459;-53
2024/01/04 03:21:43;;;;;;;;;;;;;;;;;;4980649;28;20139;-53
2024/01/04 03:24:09;;;;;;;;;;;;;;;;;;4997146;28;19952;-53
2024/01/04 03:26:35;;;;;;;;;;;;;;;;;;4980453;28;19944;-53
2024/01/04 03:29:01;;;;;;;;;;;;;;;;;;4984800;28;19945;-54
2024/01/04 03:31:27;;;;;;;;;;;;;;;;;;4979573;28;19928;-54
2024/01/04 03:33:53;;;;;;;;;;;;;;;;;;4980546;28;19930;-54
2024/01/04 03:36:18;;;;;;;;;;;;;;;;;;4984248;28;20005;-53
2024/01/04 03:38:45;;;;;;;;;;;;;;;;;;4982866;28;19921;-53
2024/01/04 03:41:11;;;;;;;;;;;;;;;;;;4978454;28;19921;-53
2024/01/04 03:43:37;;;;;;;;;;;;;;;;;;4983091;28;19924;-53
2024/01/04 03:46:03;;;;;;;;;;;;;;;;;;4980307;28;19921;-53
2024/01/04 03:48:28;;;;;;;;;;;;;;;;;;4987838;28;20220;-54
2024/01/04 03:50:54;;;;;;;;;;;;;;;;;;4984877;28;20288;-53
2024/01/04 03:53:20;;;;;;;;;;;;;;;;;;4981973;28;20139;-53
2024/01/04 03:55:46;;;;;;;;;;;;;;;;;;4978259;28;19932;-54
2024/01/04 03:58:12;;;;;;;;;;;;;;;;;;4979995;28;20057;-53
2024/01/04 04:00:38;;;;;;;;;;;;;;;;;;4980185;28;20033;-53
2024/01/04 04:03:04;;;;;;;;;;;;;;;;;;4979163;28;19913;-53
2024/01/04 04:05:30;;;;;;;;;;;;;;;;;;4975091;28;19917;-54
2024/01/04 04:07:55;;;;;;;;;;;;;;;;;;4977570;28;19963;-54
2024/01/04 04:10:22;;;;;;;;;;;;;;;;;;4977776;28;19918;-53
2024/01/04 04:12:48;;;;;;;;;;;;;;;;;;4987473;28;20044;-53
2024/01/04 04:15:14;;;;;;;;;;;;;;;;;;4980447;28;19953;-54
2024/01/04 04:17:40;;;;;;;;;;;;;;;;;;4963262;28;19917;-54
2024/01/04 04:20:05;;;;;;;;;;;;;;;;;;4979051;28;21218;-54
2024/01/04 04:22:31;;;;;;;;;;;;;;;;;;4980863;28;19918;-53
2024/01/04 04:24:57;;;;;;;;;;;;;;;;;;4980584;28;20369;-54
2024/01/04 04:27:23;;;;;;;;;;;;;;;;;;4984977;28;20427;-55
2024/01/04 04:29:49;;;;;;;;;;;;;;;;;;4984271;28;20037;-52
2024/01/04 04:32:15;;;;;;;;;;;;;;;;;;4981319;28;19921;-52
2024/01/04 04:34:41;;;;;;;;;;;;;;;;;;4981363;28;20000;-52
2024/01/04 04:37:07;;;;;;;;;;;;;;;;;;4983284;28;19921;-53
2024/01/04 04:39:32;;;;;;;;;;;;;;;;;;4977278;28;20593;-53
2024/01/04 04:41:58;;;;;;;;;;;;;;;;;;4983843;28;19913;-53
2024/01/04 04:44:24;;;;;;;;;;;;;;;;;;4987108;28;19921;-52
2024/01/04 04:46:50;;;;;;;;;;;;;;;;;;4975159;28;19971;-53
2024/01/04 04:49:16;;;;;;;;;;;;;;;;;;4978605;28;19913;-53
2024/01/04 04:51:48;;;;;;;;;;;;;;;;;;4977995;28;19918;-53
2024/01/04 04:54:14;;;;;;;;;;;;;;;;;;4981462;28;19921;-53
2024/01/04 04:56:40;;;;;;;;;;;;;;;;;;4978246;28;19976;-52
2024/01/04 04:59:06;;;;;;;;;;;;;;;;;;4973481;28;20013;-53
2024/01/04 05:01:31;;;;;;;;;;;;;;;;;;4983217;28;20490;-52
2024/01/04 05:03:57;;;;;;;;;;;;;;;;;;4982758;28;19925;-53
2024/01/04 05:06:23;;;;;;;;;;;;;;;;;;4980783;28;20395;-53
2024/01/04 05:08:49;;;;;;;;;;;;;;;;;;4984516;28;19921;-53
2024/01/04 05:11:15;;;;;;;;;;;;;;;;;;4976479;28;19918;-53
2024/01/04 05:13:41;;;;;;;;;;;;;;;;;;4974649;28;19992;-53
2024/01/04 05:16:07;;;;;;;;;;;;;;;;;;4984546;28;19921;-53
2024/01/04 05:18:33;;;;;;;;;;;;;;;;;;4980222;28;19988;-52
2024/01/04 05:20:58;;;;;;;;;;;;;;;;;;4974718;28;19948;-53
2024/01/04 05:23:24;;;;;;;;;;;;;;;;;;4979575;28;19945;-53
2024/01/04 05:25:50;;;;;;;;;;;;;;;;;;4977572;28;19992;-53
2024/01/04 05:28:16;;;;;;;;;;;;;;;;;;4980862;28;19913;-53
2024/01/04 05:30:42;;;;;;;;;;;;;;;;;;4978705;28;20031;-53
2024/01/04 05:33:08;;;;;;;;;;;;;;;;;;4990402;28;19917;-53
2024/01/04 05:35:34;;;;;;;;;;;;;;;;;;4983676;28;19921;-54
2024/01/04 05:38:00;;;;;;;;;;;;;;;;;;4987531;28;20370;-53
2024/01/04 05:40:25;;;;;;;;;;;;;;;;;;4979639;28;19914;-53
2024/01/04 05:42:52;;;;;;;;;;;;;;;;;;4974384;28;19925;-53
2024/01/04 05:45:18;;;;;;;;;;;;;;;;;;4976079;28;19920;-53
2024/01/04 05:47:44;;;;;;;;;;;;;;;;;;4981949;28;19914;-53
2024/01/04 05:50:10;;;;;;;;;;;;;;;;;;4974845;28;19914;-53
2024/01/04 05:52:36;;;;;;;;;;;;;;;;;;4983842;28;19979;-53
2024/01/04 05:55:02;;;;;;;;;;;;;;;;;;4979725;28;19967;-53
2024/01/04 05:57:28;;;;;;;;;;;;;;;;;;4973590;28;19944;-54
2024/01/04 05:59:54;;;;;;;;;;;;;;;;;;4971131;28;19922;-52
2024/01/04 06:02:19;;;;;;;;;;;;;;;;;;4980551;28;19921;-53
2024/01/04 06:04:45;;;;;;;;;;;;;;;;;;4979978;28;19918;-53
2024/01/04 06:07:11;;;;;;;;;;;;;;;;;;4984233;28;20018;-53
2024/01/04 06:09:37;;;;;;;;;;;;;;;;;;4976014;28;19917;-54
2024/01/04 06:12:03;;;;;;;;;;;;;;;;;;4982653;28;20004;-53
2024/01/04 06:14:30;;;;;;;;;;;;;;;;;;4982646;28;20266;-53
2024/01/04 06:16:56;;;;;;;;;;;;;;;;;;4974946;28;20551;-54
2024/01/04 06:19:22;;;;;;;;;;;;;;;;;;4973476;28;19922;-54
2024/01/04 06:21:48;;;;;;;;;;;;;;;;;;4981267;28;19986;-52
2024/01/04 06:24:14;;;;;;;;;;;;;;;;;;4986737;28;19989;-52
2024/01/04 06:26:40;;;;;;;;;;;;;;;;;;4972490;28;19921;-53
2024/01/04 06:29:05;;;;;;;;;;;;;;;;;;4979983;28;19919;-53
2024/01/04 06:31:31;;;;;;;;;;;;;;;;;;4975881;28;20271;-54
2024/01/04 06:33:57;;;;;;;;;;;;;;;;;;4974586;28;21099;-54
2024/01/04 06:36:23;;;;;;;;;;;;;;;;;;4960996;28;19927;-54
2024/01/04 06:38:50;;;;;;;;;;;;;;;;;;4953611;28;20059;-53
2024/01/04 06:41:16;;;;;;;;;;;;;;;;;;4966808;28;20202;-51
2024/01/04 06:43:42;;;;;;;;;;;;;;;;;;4962250;28;19914;-53
2024/01/04 06:46:07;;;;;;;;;;;;;;;;;;4961525;28;19961;-52
2024/01/04 06:48:33;;;;;;;;;;;;;;;;;;4961839;28;19925;-54
2024/01/04 06:50:59;;;;;;;;;;;;;;;;;;4963968;28;20336;-53
2024/01/04 06:53:26;;;;;;;;;;;;;;;;;;4959268;28;20004;-53
2024/01/04 06:55:51;;;;;;;;;;;;;;;;;;4962577;28;19969;-54
2024/01/04 06:58:17;;;;;;;;;;;;;;;;;;4967754;28;20009;-54
2024/01/04 07:00:43;;;;;;;;;;;;;;;;;;4964643;28;20304;-53
2024/01/04 07:03:09;;;;;;;;;;;;;;;;;;4966243;28;19974;-54
2024/01/04 07:05:35;;;;;;;;;;;;;;;;;;4967261;28;20441;-53
2024/01/04 07:08:01;;;;;;;;;;;;;;;;;;4967367;28;20316;-53
2024/01/04 07:10:27;;;;;;;;;;;;;;;;;;4954297;28;19932;-53
2024/01/04 07:12:53;;;;;;;;;;;;;;;;;;4966034;28;19926;-53
2024/01/04 07:15:19;;;;;;;;;;;;;;;;;;4971338;28;19921;-53
2024/01/04 07:17:45;;;;;;;;;;;;;;;;;;4964722;28;19932;-54
2024/01/04 07:20:10;;;;;;;;;;;;;;;;;;4967430;28;19926;-53
2024/01/04 07:22:37;;;;;;;;;;;;;;;;;;4968626;28;20301;-54
2024/01/04 07:25:03;;;;;;;;;;;;;;;;;;4964269;28;20382;-54
2024/01/04 07:27:29;;;;;;;;;;;;;;;;;;4968797;28;19914;-53
2024/01/04 07:29:55;;;;;;;;;;;;;;;;;;4972381;28;19914;-53
2024/01/04 07:32:21;;;;;;;;;;;;;;;;;;4977884;28;19921;-54
2024/01/04 07:34:47;;;;;;;;;;;;;;;;;;4949085;28;20325;-54
2024/01/04 07:37:13;;;;;;;;;;;;;;;;;;4969986;28;19918;-54
2024/01/04 07:39:39;;;;;;;;;;;;;;;;;;4952128;28;22545;-53
2024/01/04 07:42:05;;;;;;;;;;;;;;;;;;4978730;28;19918;-53
2024/01/04 07:44:30;;;;;;;;;;;;;;;;;;4974971;28;20364;-53
2024/01/04 07:46:56;;;;;;;;;;;;;;;;;;4978133;28;19913;-54
2024/01/04 07:49:22;;;;;;;;;;;;;;;;;;4980046;28;19984;-53
2024/01/04 07:51:48;;;;;;;;;;;;;;;;;;4980152;28;20386;-53
2024/01/04 07:54:14;;;;;;;;;;;;;;;;;;4970869;28;19913;-53
2024/01/04 07:56:40;;;;;;;;;;;;;;;;;;4976853;28;19925;-54
2024/01/04 07:59:06;;;;;;;;;;;;;;;;;;4976799;28;19922;-53
2024/01/04 08:01:32;;;;;;;;;;;;;;;;;;4989984;28;20396;-51
2024/01/04 08:03:59;;;;;;;;;;;;;;;;;;4991566;28;20064;-51
2024/01/04 08:06:25;;;;;;;;;;;;;;;;;;4994458;28;20285;-51
2024/01/04 08:08:52;;;;;;;;;;;;;;;;;;4993333;28;19910;-51
2024/01/04 08:11:18;;;;;;;;;;;;;;;;;;4993206;28;19960;-51
2024/01/04 08:13:44;;;;;;;;;;;;;;;;;;4993195;28;19914;-51
2024/01/04 08:16:09;;;;;;;;;;;;;;;;;;4993342;28;19920;-51
2024/01/04 08:18:36;;;;;;;;;;;;;;;;;;4992998;28;19952;-51
2024/01/04 08:21:02;;;;;;;;;;;;;;;;;;4993322;28;20340;-51
2024/01/04 08:23:27;;;;;;;;;;;;;;;;;;4992987;28;19945;-51
2024/01/04 08:25:55;;;;;;;;;;;;;;;;;;4992642;28;19914;-51
2024/01/04 08:28:21;;;;;;;;;;;;;;;;;;4992454;28;19988;-51
2024/01/04 08:30:47;;;;;;;;;;;;;;;;;;4991090;28;19910;-51
2024/01/04 08:33:13;;;;;;;;;;;;;;;;;;4992323;28;20344;-51
2024/01/04 08:35:38;;;;;;;;;;;;;;;;;;4991528;28;19914;-51
2024/01/04 08:38:04;;;;;;;;;;;;;;;;;;4991327;28;20383;-51
2024/01/04 08:40:30;;;;;;;;;;;;;;;;;;4991501;28;19992;-51
2024/01/04 08:42:56;;;;;;;;;;;;;;;;;;4991372;28;19933;-50
2024/01/04 08:45:22;;;;;;;;;;;7.20;99.90;;;;;;4991280;28;20223;-51
2024/01/04 08:47:48;;;;;;;;;;;;;;;;;;4973287;28;19914;-50
2024/01/04 08:50:13;;;;;;;;;;;;;;;;;;4990807;28;19917;-50
2024/01/04 08:52:39;;;;;;;;;;;;;;;;;;4990832;28;19924;-50
2024/01/04 08:55:07;;;;;;;;;;;;;;;;;;4990749;28;20043;-50
2024/01/04 08:57:33;;;;;;;;;;;;;;;;;;4991207;28;19909;-51
2024/01/04 08:59:59;;;;;;;;;;;;;;;;;;4990922;28;20016;-51
2024/01/04 09:02:25;;;;;;;;;;;;;;;;;;4990657;28;20052;-50
2024/01/04 09:04:51;;;;;;;;;;;;;;;;;;4990270;28;19929;-51
2024/01/04 09:07:18;;;;;;;;;;;6.60;99.90;;;;;;4990763;28;19988;-50
2024/01/04 09:09:44;;;;;;;;;;;;;;;;;;4990626;28;20349;-50
2024/01/04 09:12:10;;;;;;;;;;;;;;;;;;4990881;28;20423;-51
2024/01/04 09:14:36;;;;;;;;;;;;;;;;;;4989430;28;19992;-51
2024/01/04 09:17:02;;;;;;;;;;;;;;;;;;4988629;28;20440;-51
2024/01/04 09:19:27;;;;;;;;;;;;;;;;;;4988865;28;19910;-52
2024/01/04 09:21:53;;;;;;;;;;;;;;;;;;4989147;28;19986;-50
2024/01/04 09:26:38;;;;;;;;;;;;;;;;;;5027967;27;19921;-51
2024/01/04 09:31:35;;;;;;;;;;;6.20;99.90;;;;;;5045534;28;19925;-49
2024/01/04 09:34:01;;;;;;;;;;;;;;;;;;5024459;28;19917;-49
2024/01/04 09:36:27;;;;;;;;;;;;;;;;;;5024709;28;19964;-49
2024/01/04 09:38:53;;;;;;;;;;;;;;;;;;5025581;28;20363;-50
2024/01/04 09:41:18;;;;;;;;;;;;;;;;;;5058896;28;19917;-49
2024/01/04 09:43:44;;;;;;;;;;;;;;;;;;5031455;28;19975;-51
2024/01/04 09:46:12;;;;;;;;;;;;;;;;;;5017511;28;20340;-51
2024/01/04 09:48:38;;;;;;;;;;;;;;;;;;5016464;28;19928;-52
2024/01/04 09:51:04;;;;;;;;;;;;;;;;;;5012081;28;19917;-51
2024/01/04 09:53:30;;;;;;;;;;;;;;;;;;5014561;28;20003;-53
2024/01/04 09:55:56;;;;;;;;;;;;;;;;;;5009705;28;20112;-53
2024/01/04 09:58:22;;;;;;;;;;;;;;;;;;5007681;28;20447;-53
2024/01/04 10:00:48;;;;;;;;;;;;;;;;;;5008865;28;19935;-52
2024/01/04 10:03:14;;;;;;;;;;;;;;;;;;5021093;28;20176;-51
2024/01/04 10:05:42;;;;;;;;;;;;;;;;;;5017203;28;19994;-52
2024/01/04 10:08:07;;;;;;;;;;;;;;;;;;5020852;28;19921;-52
2024/01/04 10:10:33;;;;;;;;;;;;;;;;;;5013588;28;19964;-52
2024/01/04 10:12:59;;;;;;;;;;;;;;;;;;5008498;28;20004;-51
2024/01/04 10:15:25;;;;;;;;;;;;;;;;;;5023080;28;20429;-51
2024/01/04 10:17:51;;;;;;;;;;;;;;;;;;5021359;28;19944;-51
2024/01/04 10:20:17;;;;;;;;;;;;;;;;;;5005505;28;20396;-51
2024/01/04 10:22:43;;;;;;;;;;;;;;;;;;5017473;28;19948;-51
2024/01/04 10:25:09;;;;;;;;;;;;;;;;;;5010864;28;19925;-51
2024/01/04 10:27:35;;;;;;;;;;;;;;;;;;5013879;28;19924;-51
2024/01/04 10:30:01;;;;;;;;;;;;;;;;;;5020860;28;19932;-51
2024/01/04 10:32:26;;;;;;;;;;;;;;;;;;5032773;28;19917;-52
2024/01/04 10:34:52;;;;;;;;;;;;;;;;;;5045643;28;19969;-52
2024/01/04 10:37:18;;;;;;;;;;;;;;;;;;5033042;28;19924;-51
2024/01/04 10:39:45;;;;;;;;;;;;;;;;;;5030855;28;19960;-52
2024/01/04 10:42:11;;;;;;;;;;;;;;;;;;5028283;28;19917;-50
2024/01/04 10:44:36;;;;;;;;;;;;;;;;;;5024031;28;19940;-51
2024/01/04 10:47:02;;;;;;;;;;;;;;;;;;5027504;28;20006;-50
2024/01/04 10:49:28;;;;;;;;;;;;;;;;;;5023534;28;19924;-52
2024/01/04 10:51:54;;;;;;;;;;;;;;;;;;5021367;28;19917;-52
2024/01/04 10:54:21;;;;;;;;;;;;;;;;;;5027918;28;19932;-52
2024/01/04 10:56:47;;;;;;;;;;;;;;;;;;5021273;28;20006;-53
2024/01/04 10:59:12;;;;;;;;;;;;;;;;;;5018499;28;20361;-51
2024/01/04 11:01:38;;;;;;;;;;;;;;;;;;5021998;28;19924;-51
2024/01/04 11:04:04;;;;;;;;;;;;;;;;;;5030339;28;20019;-51
2024/01/04 11:06:34;;;;;;;;;;;;;;;;;;5033815;28;20046;-52
2024/01/04 11:09:01;;;;;;;;;;;;;;;;;;5025248;28;19921;-52
2024/01/04 11:11:26;;;;;;;;;;;;;;;;;;5021781;28;19979;-52
2024/01/04 11:13:52;;;;;;;;;;;;;;;;;;5021877;28;19917;-52
2024/01/04 11:16:19;;;;;;;;;;;;;;;;;;5022973;28;20088;-52
2024/01/04 11:18:45;;;;;;;;;;;;;;;;;;5022416;28;20151;-51
2024/01/04 11:21:11;;;;;;;;;;;;;;;;;;5021472;28;20226;-52
2024/01/04 11:23:37;;;;;;;;;;;;;;;;;;5017633;28;20372;-52
2024/01/04 11:26:03;;;;;;;;;;;;;;;;;;5012538;28;19943;-51
2024/01/04 11:28:29;;;;;;;;;;;;;;;;;;5024412;28;19971;-51
2024/01/04 11:30:54;;;;;;;;;;;;;;;;;;5019024;28;20392;-52
2024/01/04 11:33:21;;;;;;;;;;;;;;;;;;5027997;28;20461;-52
2024/01/04 11:35:49;;;;;;;;;;;;;;;;;;5022954;28;19924;-52
2024/01/04 11:38:16;;;;;;;;;;;;;;;;;;5017532;28;20165;-51
2024/01/04 11:40:42;;;;;;;;;;;;;;;;;;5011492;28;19968;-52
2024/01/04 11:43:08;;;;;;;;;;;;;;;;;;5025091;28;20031;-51
2024/01/04 11:45:34;;;;;;;;;;;;;;;;;;5026208;28;19921;-52
2024/01/04 11:48:00;;;;;;;;;;;;;;;;;;5024363;28;19946;-52
2024/01/04 11:50:28;;;;;;;;;;;;;;;;;;5020823;28;19925;-51
2024/01/04 11:52:54;;;;;;;;;;;;;;;;;;5025664;28;19925;-52
2024/01/04 11:55:20;;;;;;;;;;;;;;;;;;5020434;28;20249;-52
2024/01/04 11:57:46;;;;;;;;;;;;;;;;;;5023574;28;19917;-52
2024/01/04 12:00:12;;;;;;;;;;;;;;;;;;5024203;28;19936;-52
2024/01/04 12:02:38;;;;;;;;;;;;;;;;;;5022575;28;19925;-52
2024/01/04 12:05:04;;;;;;;;;;;;;;;;;;5023846;28;20046;-52
2024/01/04 12:07:30;;;;;;;;;;;;;;;;;;5021363;28;20008;-52
2024/01/04 12:09:57;;;;;;;;;;;;;;;;;;5007200;28;19932;-52
2024/01/04 12:12:23;;;;;;;;;;;;;;;;;;5023896;28;19920;-52
2024/01/04 12:14:49;;;;;;;;;;;;;;;;;;5021169;28;19940;-51
2024/01/04 12:17:14;;;;;;;;;;;;;;;;;;5014378;28;20066;-52
2024/01/04 12:19:40;;;;;;;;;;;;;;;;;;5020496;28;19916;-51
2024/01/04 12:22:06;;;;;;;;;;;;;;;;;;5024981;28;19924;-51
2024/01/04 12:24:32;;;;;;;;;;;;;;;;;;5022696;28;20606;-51
2024/01/04 12:26:58;;;;;;;;;;;;;;;;;;5022880;28;19909;-51
2024/01/04 12:29:24;;;;;;;;;;;4.50;99.90;;;;;;5013043;28;20208;-52
2024/01/04 12:31:51;;;;;;;;;;;;;;;;;;5018967;28;19917;-52
2024/01/04 12:34:17;;;;;;;;;;;;;;;;;;5021541;28;19921;-52
2024/01/04 12:36:43;;;;;;;;;;;;;;;;;;5023061;28;20376;-52
2024/01/04 12:39:10;;;;;;;;;;;;;;;;;;5022807;28;19920;-51
2024/01/04 12:41:37;;;;;;;;;;;;;;;;;;5040935;28;19925;-51
2024/01/04 12:44:04;;;;;;;;;;;;;;;;;;5040622;28;19921;-52
2024/01/04 12:46:30;;;;;;;;;;;4.60;99.90;;;;;;5037223;28;19925;-51
2024/01/04 12:48:56;;;;;;;;;;;;;;;;;;5042669;28;19933;-52
2024/01/04 12:51:22;;;;;;;;;;;;;;;;;;5043615;28;20493;-51
2024/01/04 12:53:48;;;;;;;;;;;;;;;;;;5037257;28;20391;-52
2024/01/04 12:56:15;;;;;;;;;;;;;;;;;;5042917;28;20004;-52
2024/01/04 12:58:41;;;;;;;;;;;;;;;;;;5040457;28;19917;-52
2024/01/04 13:01:07;;;;;;;;;;;;;;;;;;5044507;28;20043;-52
2024/01/04 13:03:32;;;;;;;;;;;;;;;;;;5039135;28;19963;-50
2024/01/04 13:05:58;;;;;;;;;;;;;;;;;;5030961;28;20327;-52
2024/01/04 13:08:24;;;;;;;;;;;;;;;;;;5036786;28;19982;-52
2024/01/04 13:10:50;;;;;;;;;;;;;;;;;;5038167;28;19933;-51
2024/01/04 13:13:16;;;;;;;;;;;;;;;;;;5047925;28;19932;-52
2024/01/04 13:15:42;;;;;;;;;;;;;;;;;;5040632;28;19917;-51
2024/01/04 13:18:09;;;;;;;;;;;;;;;;;;5048760;28;21091;-51
2024/01/04 13:20:34;;;;;;;;;;;;;;;;;;5047021;28;19923;-51
2024/01/04 13:23:00;;;;;;;;;;;;;;;;;;5044647;28;19916;-51
2024/01/04 13:25:26;;;;;;;;;;;;;;;;;;5038664;28;20192;-52
2024/01/04 13:27:52;;;;;;;;;;;;;;;;;;5047138;28;20233;-51
2024/01/04 13:30:20;;;;;;;;;;;;;;;;;;5044613;28;19925;-51
2024/01/04 13:32:46;;;;;;;;;;;;;;;;;;5042554;28;20081;-52
2024/01/04 13:35:12;;;;;;;;;;;;;;;;;;5040551;28;19974;-52
2024/01/04 13:37:37;;;;;;;;;;;;;;;;;;5046248;28;20277;-52
2024/01/04 13:40:03;;;;;;;;;;;;;;;;;;5042534;28;19959;-51
2024/01/04 13:42:29;;;;;;;;;;;;;;;;;;5041407;28;19920;-51
2024/01/04 13:44:55;;;;;;;;;;;;;;;;;;5040552;28;20147;-51
2024/01/04 13:47:21;;;;;;;;;;;;;;;;;;5038765;28;20372;-51
2024/01/04 13:49:47;;;;;;;;;;;;;;;;;;5045362;28;19924;-50
2024/01/04 13:52:13;;;;;;;;;;;;;;;;;;5044988;28;19975;-51
2024/01/04 13:54:41;;;;;;;;;;;;;;;;;;5046568;28;19912;-52
2024/01/04 13:57:07;;;;;;;;;;;;;;;;;;5050887;28;19920;-52
2024/01/04 13:59:33;;;;;;;;;;;;;;;;;;5041499;28;20011;-52
2024/01/04 14:01:59;;;;;;;;;;;;;;;;;;5042173;28;19926;-51
2024/01/04 14:04:25;;;;;;;;;;;;;;;;;;5036788;28;20560;-52
2024/01/04 14:06:51;;;;;;;;;;;;;;;;;;5048616;28;19969;-51
2024/01/04 14:09:17;;;;;;;;;;;;;;;;;;5039900;28;20200;-52
2024/01/04 14:11:44;;;;;;;;;;;;;;;;;;5042046;28;20455;-52
2024/01/04 14:14:11;;;;;;;;;;;;;;;;;;5036247;28;20311;-51
2024/01/04 14:16:37;;;;;;;;;;;;;;;;;;5041676;28;20012;-51
2024/01/04 14:19:03;;;;;;;;;;;;;;;;;;5046806;28;20039;-52
2024/01/04 14:21:28;;;;;;;;;;;;;;;;;;5042451;28;20340;-53
2024/01/04 14:23:54;;;;;;;;;;;;;;;;;;5028311;28;19912;-52
2024/01/04 14:26:20;;;;;;;;;;;;;;;;;;5032012;28;19931;-52
2024/01/04 14:28:46;;;;;;;;;;;;;;;;;;5026609;28;19924;-51
2024/01/04 14:31:14;;;;;;;;;;;;;;;;;;5023813;28;20047;-52
2024/01/04 14:33:39;;;;;;;;;;;4.40;99.90;;;;;;5018470;28;20006;-52
2024/01/04 14:36:07;;;;;;;;;;;;;;;;;;5022505;28;19971;-52
2024/01/04 14:38:33;;;;;;;;;;;;;;;;;;5022620;28;20168;-51
2024/01/04 14:41:00;;;;;;;;;;;;;;;;;;5022679;28;19928;-52
2024/01/04 14:43:26;;;;;;;;;;;;;;;;;;5024377;28;19932;-51
2024/01/04 14:45:52;;;;;;;;;;;;;;;;;;5022915;28;19916;-51
2024/01/04 14:48:18;;;;;;;;;;;;;;;;;;5030398;28;19920;-52
2024/01/04 14:50:44;;;;;;;;;;;;;;;;;;5021924;28;19929;-51
2024/01/04 14:53:10;;;;;;;;;;;;;;;;;;5022928;28;20491;-51
2024/01/04 14:55:36;;;;;;;;;;;;;;;;;;5023274;28;19925;-50
2024/01/04 14:58:02;;;;;;;;;;;;;;;;;;5013041;28;20535;-51
2024/01/04 15:00:28;;;;;;;;;;;;;;;;;;5021030;28;20024;-51
2024/01/04 15:02:54;;;;;;;;;;;;;;;;;;5000525;28;20004;-51
2024/01/04 15:05:20;;;;;;;;;;;;;;;;;;5023027;28;19921;-52
2024/01/04 15:07:45;;;;;;;;;;;;;;;;;;5027643;28;19916;-52
2024/01/04 15:10:11;;;;;;;;;;;;;;;;;;5029218;28;20020;-52
2024/01/04 15:12:39;;;;;;;;;;;;;;;;;;5029158;28;20477;-52
2024/01/04 15:15:08;;;;;;;;;;;;;;;;;;5028736;28;19924;-52
2024/01/04 15:17:34;;;;;;;;;;;;;;;;;;5028556;28;20318;-52
2024/01/04 15:20:00;;;;;;;;;;;;;;;;;;5012501;28;19917;-52
2024/01/04 15:25:29;;;;;;;;;;;;;;;;;;5036231;28;19991;-52
2024/01/04 15:27:56;;;;;;;;;;;;;;;;;;5030590;28;19952;-51
2024/01/04 15:30:22;;;;;;;;;;;;;;;;;;5008307;28;19924;-51
2024/01/04 15:32:49;;;;;;;;;;;;;;;;;;5024424;28;20002;-51
2024/01/04 15:35:15;;;;;;;;;;;;;;;;;;5028042;28;19917;-52
2024/01/04 15:37:41;;;;;;;;;;;;;;;;;;5026829;28;19986;-53
2024/01/04 15:40:07;;;;;;;;;;;;;;;;;;5040394;28;19923;-52
2024/01/04 15:42:33;;;;;;;;;;;;;;;;;;5043812;28;19955;-49
2024/01/04 15:44:59;;;;;;;;;;;;;;;;;;5050632;28;20389;-49
2024/01/04 15:47:25;;;;;;;;;;;;;;;;;;5050127;28;19991;-49
2024/01/04 15:49:51;;;;;;;;;;;;;;;;;;5049410;28;20007;-50
2024/01/04 15:52:17;;;;;;;;;;;;;;;;;;5049803;28;19920;-51
2024/01/04 15:54:42;;;;;;;;;;;2.30;99.90;;;;;;5049642;28;19908;-50
2024/01/04 15:57:09;;;;;;;;;;;;;;;;;;5050262;28;19913;-50
2024/01/04 15:59:35;;;;;;;;;;;;;;;;;;5049779;28;19991;-50
2024/01/04 16:02:01;;;;;;;;;;;;;;;;;;5049643;28;19913;-51
2024/01/04 16:04:27;;;;;;;;;;;;;;;;;;5049357;28;19913;-50
2024/01/04 16:06:53;;;;;;;;;;;;;;;;;;5049388;28;20492;-51
2024/01/04 16:09:19;;;;;;;;;;;1.80;99.90;;;;;;5049733;28;19908;-51
2024/01/04 16:11:45;;;;;;;;;;;;;;;;;;5049573;28;19916;-50
2024/01/04 16:14:11;;;;;;;;;;;;;;;;;;5050702;28;19913;-51
2024/01/04 16:16:37;;;;;;;;;;;;;;;;;;5050789;28;19913;-51
2024/01/04 16:19:03;;;;;;;;;;;;;;;;;;5050266;28;19950;-51
2024/01/04 16:21:29;;;;;;;;;;;;;;;;;;5050631;28;20059;-50
2024/01/04 16:23:56;;;;;;;;;;;1.90;99.90;;;;;;5051156;28;20237;-51
2024/01/04 16:26:22;;;;;;;;;;;;;;;;;;5050467;28;19913;-49
2024/01/04 16:28:48;;;;;;;;;;;;;;;;;;5050419;28;19913;-50
2024/01/04 16:31:14;;;;;;;;;;;;;;;;;;5050093;28;19925;-49
2024/01/04 16:33:39;;;;;;;;;;;2.00;99.90;;;;;;5050255;28;19913;-49
2024/01/04 16:36:11;;;;;;;;;;;;;;;;;;5051057;28;19908;-49
2024/01/04 16:38:38;;;;;;;;;;;;;;;;;;5048758;28;20003;-49
2024/01/04 16:41:04;;;;;;;;;;;;;;;;;;5048239;28;19917;-50